Time;durP1;ratioP1;P1;durP2;ratioP2;P2;SDS_P1;SDS_P2;PMS_P1;PMS_P2;Temp;Humidity;BMP_temperature;BMP_pressure;BME280_temperature;BME280_humidity;BME280_pressure;Samples;Min_cycle;Max_cycle;Signal;HPM_P1;HPM_P2
2021/01/13 00:01:38;;;;;;;135.03;67.60;;;0.70;2201.60;;;;;;4995413;28;20514;-75
2021/01/13 00:04:04;;;;;;;151.27;71.37;;;0.70;2201.60;;;;;;4995577;28;20075;-75
2021/01/13 00:06:30;;;;;;;147.57;70.03;;;0.70;2201.60;;;;;;4995908;28;20058;-75
2021/01/13 00:08:55;;;;;;;145.50;71.43;;;0.70;2201.60;;;;;;4995405;28;20110;-75
2021/01/13 00:11:21;;;;;;;145.27;67.37;;;0.60;2201.60;;;;;;4995311;28;20038;-75
2021/01/13 00:13:47;;;;;;;144.47;66.70;;;0.60;2201.60;;;;;;4993743;28;20514;-75
2021/01/13 00:16:14;;;;;;;145.07;65.77;;;0.60;2201.60;;;;;;4994044;28;20023;-75
2021/01/13 00:18:40;;;;;;;136.80;67.20;;;0.50;2201.60;;;;;;4994153;28;20034;-75
2021/01/13 00:21:12;;;;;;;145.30;64.37;;;0.50;2201.60;;;;;;4994226;28;20133;-75
2021/01/13 00:23:41;;;;;;;140.27;64.90;;;0.40;2201.60;;;;;;4995223;28;20088;-75
2021/01/13 00:26:07;;;;;;;158.13;68.10;;;0.40;2201.60;;;;;;4995116;28;20037;-75
2021/01/13 00:28:33;;;;;;;149.90;67.80;;;0.40;2201.60;;;;;;4993837;28;20026;-75
2021/01/13 00:30:59;;;;;;;148.53;67.37;;;0.40;2201.60;;;;;;4993464;28;20029;-75
2021/01/13 00:33:25;;;;;;;151.93;69.97;;;0.40;2201.60;;;;;;4993148;28;20029;-75
2021/01/13 00:35:51;;;;;;;151.20;69.40;;;0.30;2201.60;;;;;;4993468;28;20046;-75
2021/01/13 00:38:17;;;;;;;156.97;69.07;;;0.30;2201.60;;;;;;4995448;28;20372;-75
2021/01/13 00:40:43;;;;;;;144.53;66.87;;;0.30;2201.60;;;;;;4994634;28;20395;-75
2021/01/13 00:43:08;;;;;;;146.13;67.80;;;0.30;2201.60;;;;;;4993125;28;20058;-75
2021/01/13 00:45:34;;;;;;;139.03;65.77;;;0.20;2201.60;;;;;;4994676;28;20164;-75
2021/01/13 00:48:00;;;;;;;142.83;67.40;;;0.30;2201.60;;;;;;4994849;28;20034;-75
2021/01/13 00:50:27;;;;;;;142.60;65.67;;;0.20;2201.60;;;;;;4994417;28;20030;-75
2021/01/13 00:52:53;;;;;;;145.97;64.87;;;0.20;2201.60;;;;;;4994603;28;20050;-75
2021/01/13 00:55:19;;;;;;;145.73;66.73;;;0.30;2201.60;;;;;;4994459;28;20475;-75
2021/01/13 00:57:49;;;;;;;147.67;67.20;;;0.30;2201.60;;;;;;4993086;28;20030;-75
2021/01/13 01:00:16;;;;;;;154.23;65.97;;;0.30;2201.60;;;;;;4993373;28;20026;-75
2021/01/13 01:02:42;;;;;;;149.57;68.30;;;0.30;2201.60;;;;;;4993269;28;20113;-75
2021/01/13 01:05:09;;;;;;;153.67;69.03;;;0.30;2201.60;;;;;;4994208;28;20125;-75
2021/01/13 01:07:42;;;;;;;164.47;72.07;;;0.20;2201.60;;;;;;4993172;28;20446;-75
2021/01/13 01:10:14;;;;;;;172.93;73.50;;;0.20;2201.60;;;;;;4993496;28;20038;-78
2021/01/13 01:12:39;;;;;;;162.03;69.27;;;0.30;2201.60;;;;;;4992972;28;20502;-75
2021/01/13 01:15:06;;;;;;;159.50;70.47;;;0.20;2201.60;;;;;;4994281;28;20062;-75
2021/01/13 01:17:32;;;;;;;167.60;70.80;;;0.20;2201.60;;;;;;4994401;28;20414;-75
2021/01/13 01:19:58;;;;;;;156.10;67.60;;;0.20;2201.60;;;;;;4993056;28;20030;-75
2021/01/13 01:22:24;;;;;;;160.30;71.30;;;0.20;2201.60;;;;;;4993002;28;20046;-75
2021/01/13 01:24:50;;;;;;;164.60;69.90;;;0.20;2201.60;;;;;;4994151;28;20033;-75
2021/01/13 01:27:16;;;;;;;149.40;66.93;;;0.20;2201.60;;;;;;4992996;28;20472;-75
2021/01/13 01:29:42;;;;;;;151.70;65.20;;;0.20;2201.60;;;;;;4994133;28;20054;-75
2021/01/13 01:32:08;;;;;;;147.83;66.10;;;0.20;2201.60;;;;;;4993970;28;20034;-75
2021/01/13 01:34:34;;;;;;;141.13;61.27;;;0.30;2201.60;;;;;;4992901;28;20468;-75
2021/01/13 01:36:59;;;;;;;142.97;63.30;;;0.20;2201.60;;;;;;5006606;28;20049;-75
2021/01/13 01:39:25;;;;;;;133.07;61.47;;;0.30;2201.60;;;;;;5013978;28;20030;-75
2021/01/13 01:41:51;;;;;;;136.50;61.27;;;0.20;2201.60;;;;;;5013727;28;20026;-75
2021/01/13 01:44:17;;;;;;;126.33;57.57;;;0.30;2201.60;;;;;;4995904;28;20033;-75
2021/01/13 01:46:45;;;;;;;124.20;59.30;;;0.30;2201.60;;;;;;4995948;28;20479;-75
2021/01/13 01:49:14;;;;;;;127.80;58.40;;;0.30;2201.60;;;;;;5013568;28;20471;-75
2021/01/13 01:52:14;;;;;;;121.20;55.73;;;0.50;2201.60;;;;;;5013575;28;20053;-75
2021/01/13 01:54:54;;;;;;;119.10;55.17;;;0.30;2201.60;;;;;;4976113;28;20084;-75
2021/01/13 01:57:23;;;;;;;111.77;53.27;;;0.30;2201.60;;;;;;4995886;28;20022;-75
2021/01/13 02:00:00;;;;;;;105.73;52.30;;;0.30;2201.60;;;;;;4995895;28;20048;-75
2021/01/13 02:02:35;;;;;;;115.10;53.47;;;0.30;2201.60;;;;;;4995823;28;20382;-75
2021/01/13 02:05:03;;;;;;;108.70;51.43;;;0.30;2201.60;;;;;;5013697;28;20034;-75
2021/01/13 02:07:31;;;;;;;112.17;53.70;;;0.30;2201.60;;;;;;4996133;28;20053;-75
2021/01/13 02:09:58;;;;;;;110.93;55.23;;;0.30;2201.60;;;;;;4995839;28;20034;-75
2021/01/13 02:12:33;;;;;;;106.33;53.53;;;0.40;2201.60;;;;;;4997391;28;20434;-75
2021/01/13 02:15:00;;;;;;;102.10;50.23;;;0.40;2201.60;;;;;;5017257;28;20033;-75
2021/01/13 02:17:35;;;;;;;103.67;48.80;;;0.40;2201.60;;;;;;5017432;28;20018;-75
2021/01/13 02:20:10;;;;;;;104.97;50.70;;;0.40;2201.60;;;;;;4999519;28;20022;-75
2021/01/13 02:22:48;;;;;;;96.10;47.27;;;0.40;2201.60;;;;;;4999147;28;20422;-75
2021/01/13 02:25:14;;;;;;;97.97;49.73;;;0.40;2201.60;;;;;;5017040;28;20117;-75
2021/01/13 02:28:22;;;;;;;98.53;48.50;;;0.40;2201.60;;;;;;4999366;28;20052;-75
2021/01/13 02:31:03;;;;;;;99.13;48.60;;;0.40;2201.60;;;;;;5017016;28;20030;-75
2021/01/13 02:33:52;;;;;;;100.83;48.13;;;0.40;2201.60;;;;;;4999344;28;20474;-75
2021/01/13 02:36:19;;;;;;;93.90;44.83;;;0.40;2201.60;;;;;;5016628;28;20053;-75
2021/01/13 02:38:51;;;;;;;94.43;48.10;;;0.40;2201.60;;;;;;4999071;28;20524;-75
2021/01/13 02:41:18;;;;;;;91.50;46.30;;;0.50;2201.60;;;;;;4999235;28;20033;-75
2021/01/13 02:44:09;;;;;;;88.50;44.57;;;0.40;2201.60;;;;;;4999179;28;20044;-75
2021/01/13 02:46:56;;;;;;;83.80;44.13;;;0.20;2201.60;;;;;;4999039;28;20120;-75
2021/01/13 02:49:40;;;;;;;89.83;46.40;;;0.40;2201.60;;;;;;4999053;28;20025;-75
2021/01/13 02:52:17;;;;;;;;;;;0.50;2201.60;;;;;;4999214;28;20386;-75
2021/01/13 02:54:45;;;;;;;91.40;43.63;;;0.40;2201.60;;;;;;5016501;28;20012;-75
2021/01/13 02:57:14;;;;;;;85.97;43.07;;;0.40;2201.60;;;;;;5016416;28;20018;-75
2021/01/13 02:59:47;;;;;;;84.67;44.13;;;0.40;2201.60;;;;;;5016414;28;20026;-75
2021/01/13 03:02:14;;;;;;;88.55;45.40;;;0.50;2201.60;;;;;;5016376;28;20029;-75
2021/01/13 03:04:41;;;;;;;81.63;43.63;;;0.50;2201.60;;;;;;5016123;28;20045;-75
2021/01/13 03:07:25;;;;;;;87.80;45.07;;;0.50;2201.60;;;;;;5016216;28;20422;-75
2021/01/13 03:09:56;;;;;;;;;;;0.50;2201.60;;;;;;5016641;28;20026;-75
2021/01/13 03:12:28;;;;;;;83.30;43.40;;;0.50;2201.60;;;;;;4998857;28;20274;-75
2021/01/13 03:14:58;;;;;;;84.13;42.23;;;0.50;2201.60;;;;;;5016120;28;20029;-75
2021/01/13 03:17:29;;;;;;;87.07;45.47;;;0.50;2201.60;;;;;;4998760;28;20030;-75
2021/01/13 03:20:32;;;;;;;79.70;42.93;;;0.50;2201.60;;;;;;4998508;28;20028;-75
2021/01/13 03:23:06;;;;;;;91.30;45.40;;;0.50;2201.60;;;;;;5015177;28;20441;-75
2021/01/13 03:25:45;;;;;;;91.00;45.67;;;0.50;2201.60;;;;;;4997959;28;20483;-75
2021/01/13 03:28:14;;;;;;;89.27;47.30;;;0.50;2201.60;;;;;;5015884;28;20037;-75
2021/01/13 03:30:43;;;;;;;86.07;44.73;;;0.60;2201.60;;;;;;5015796;28;20029;-75
2021/01/13 03:33:20;;;;;;;82.30;42.67;;;0.60;2201.60;;;;;;5015779;28;20029;-75
2021/01/13 03:36:02;;;;;;;83.77;43.67;;;0.50;2201.60;;;;;;4998002;28;20053;-75
2021/01/13 03:38:29;;;;;;;81.00;40.60;;;0.50;2201.60;;;;;;5015676;28;20169;-75
2021/01/13 03:41:06;;;;;;;87.00;45.43;;;0.60;2201.60;;;;;;5015618;28;20060;-75
2021/01/13 03:43:37;;;;;;;81.03;41.73;;;0.60;2201.60;;;;;;5015866;28;20018;-74
2021/01/13 03:46:10;;;;;;;87.30;44.33;;;0.60;2201.60;;;;;;5015508;28;20038;-75
2021/01/13 03:48:49;;;;;;;93.75;46.80;;;0.60;2201.60;;;;;;5015524;28;20049;-75
2021/01/13 03:51:54;;;;;;;91.17;47.60;;;0.60;2201.60;;;;;;5015515;28;20115;-75
2021/01/13 03:54:24;;;;;;;85.00;44.83;;;0.70;2201.60;;;;;;4997842;28;20121;-75
2021/01/13 03:57:00;;;;;;;86.33;42.73;;;0.70;2201.60;;;;;;5015320;28;20064;-75
2021/01/13 04:00:01;;;;;;;82.57;45.33;;;0.70;2201.60;;;;;;4997524;28;20033;-75
2021/01/13 04:02:42;;;;;;;89.30;44.83;;;0.70;2201.60;;;;;;4991147;28;20065;-75
2021/01/13 04:05:29;;;;;;;91.13;46.47;;;0.70;2201.60;;;;;;4997472;28;20062;-75
2021/01/13 04:07:56;;;;;;;83.23;44.33;;;0.60;2201.60;;;;;;5015194;28;20026;-75
2021/01/13 04:10:23;;;;;;;86.17;44.07;;;0.60;2201.60;;;;;;4997503;28;20087;-75
2021/01/13 04:12:55;;;;;;;86.50;45.27;;;0.60;2201.60;;;;;;5015087;28;20475;-75
2021/01/13 04:15:26;;;;;;;86.03;44.10;;;0.60;2201.60;;;;;;4997399;28;20528;-75
2021/01/13 04:17:52;;;;;;;91.03;46.93;;;0.60;2201.60;;;;;;5015137;28;20025;-75
2021/01/13 04:20:19;;;;;;;92.60;46.30;;;0.70;2201.60;;;;;;5014906;28;20029;-75
2021/01/13 04:22:48;;;;;;;89.80;47.07;;;0.60;2201.60;;;;;;4997220;28;20528;-75
2021/01/13 04:25:14;;;;;;;86.43;45.33;;;0.60;2201.60;;;;;;4997027;28;20551;-75
2021/01/13 04:27:41;;;;;;;87.17;43.33;;;0.60;2201.60;;;;;;4997126;28;20096;-75
2021/01/13 04:30:08;;;;;;;86.87;45.70;;;0.70;2201.60;;;;;;4997080;28;20041;-75
2021/01/13 04:32:34;;;;;;;85.07;44.63;;;0.70;2201.60;;;;;;4997048;28;20034;-75
2021/01/13 04:35:00;;;;;;;88.17;44.60;;;0.70;2201.60;;;;;;5014119;28;20037;-75
2021/01/13 04:37:31;;;;;;;83.30;44.30;;;0.70;2201.60;;;;;;5014455;28;20469;-75
2021/01/13 04:40:02;;;;;;;96.00;50.43;;;0.70;2201.60;;;;;;4996604;28;20029;-75
2021/01/13 04:42:56;;;;;;;92.83;48.13;;;0.70;2201.60;;;;;;5014572;28;20445;-75
2021/01/13 04:45:34;;;;;;;94.33;47.67;;;0.70;2201.60;;;;;;5014713;28;20117;-75
2021/01/13 04:48:09;;;;;;;90.40;44.90;;;0.70;2201.60;;;;;;4996722;28;20108;-75
2021/01/13 04:50:38;;;;;;;95.07;47.73;;;0.70;2201.60;;;;;;4996715;28;20041;-75
2021/01/13 04:53:09;;;;;;;86.80;45.93;;;0.70;2201.60;;;;;;5014289;28;20024;-75
2021/01/13 04:55:44;;;;;;;89.77;45.40;;;0.70;2201.60;;;;;;5014315;28;20089;-75
2021/01/13 04:59:07;;;;;;;95.83;48.47;;;0.70;2201.60;;;;;;5014233;28;20022;-75
2021/01/13 05:01:42;;;;;;;95.83;48.27;;;0.70;2201.60;;;;;;4934878;29;20107;-75
2021/01/13 05:04:24;;;;;;;93.50;46.53;;;0.70;2201.60;;;;;;4934517;29;20031;-75
2021/01/13 05:07:13;;;;;;;102.43;49.40;;;0.80;2201.60;;;;;;4984822;28;20057;-75
2021/01/13 05:09:58;;;;;;;98.47;49.10;;;0.80;2201.60;;;;;;4996442;28;20033;-75
2021/01/13 05:12:39;;;;;;;94.27;47.90;;;0.80;2201.60;;;;;;4996457;28;20029;-75
2021/01/13 05:15:06;;;;;;;93.77;47.37;;;0.80;2201.60;;;;;;5007877;28;20080;-75
2021/01/13 05:17:35;;;;;;;92.63;45.83;;;0.80;2201.60;;;;;;4996262;28;20494;-75
2021/01/13 05:20:22;;;;;;;85.70;43.00;;;0.80;2201.60;;;;;;5013920;28;20034;-75
2021/01/13 05:22:51;;;;;;;88.20;44.63;;;0.90;2201.60;;;;;;5013899;28;20037;-75
2021/01/13 05:25:35;;;;;;;87.10;46.53;;;0.90;2201.60;;;;;;5013762;28;20030;-75
2021/01/13 05:28:12;;;;;;;91.00;44.97;;;0.90;2201.60;;;;;;5013838;28;20029;-75
2021/01/13 05:30:41;;;;;;;93.63;48.47;;;25.60;2201.60;;;;;;5013722;28;20037;-75
2021/01/13 05:33:12;;;;;;;88.90;46.97;;;25.60;2201.60;;;;;;5013714;28;20014;-75
2021/01/13 05:35:43;;;;;;;89.33;46.43;;;0.90;2201.60;;;;;;5013560;28;20057;-75
2021/01/13 05:38:15;;;;;;;88.27;44.77;;;0.90;2201.60;;;;;;5013736;28;20383;-75
2021/01/13 05:40:41;;;;;;;94.97;46.27;;;25.60;2201.60;;;;;;5013759;28;20030;-75
2021/01/13 05:43:08;;;;;;;82.73;44.33;;;25.60;2201.60;;;;;;5013525;28;20018;-75
2021/01/13 05:45:39;;;;;;;91.40;46.60;;;25.60;2201.60;;;;;;4995793;28;20045;-75
2021/01/13 05:48:25;;;;;;;92.10;46.80;;;25.60;2201.60;;;;;;5016548;28;20018;-75
2021/01/13 05:50:52;;;;;;;90.37;46.93;;;25.60;2201.60;;;;;;5000040;28;20034;-75
2021/01/13 05:53:19;;;;;;;93.10;48.47;;;25.60;2201.60;;;;;;4999571;28;20025;-75
2021/01/13 05:55:47;;;;;;;100.53;49.83;;;25.60;2201.60;;;;;;5017504;28;20022;-75
2021/01/13 05:58:14;;;;;;;91.70;48.23;;;25.60;2201.60;;;;;;4999903;28;20532;-75
2021/01/13 06:00:41;;;;;;;93.23;48.53;;;25.60;2201.60;;;;;;5017539;28;20022;-75
2021/01/13 06:03:10;;;;;;;103.87;49.57;;;25.60;2201.60;;;;;;4999874;28;20046;-75
2021/01/13 06:05:49;;;;;;;101.97;57.00;;;25.60;2201.60;;;;;;5017473;28;20025;-76
2021/01/13 06:08:16;;;;;;;99.40;51.63;;;25.60;2201.60;;;;;;4999834;28;20022;-75
2021/01/13 06:10:42;;;;;;;141.37;67.83;;;25.60;2201.60;;;;;;5017416;28;20022;-75
2021/01/13 06:13:16;;;;;;;160.83;77.30;;;25.60;2201.60;;;;;;4999726;28;20030;-75
2021/01/13 06:15:44;;;;;;;167.13;77.00;;;25.60;2201.60;;;;;;5017345;28;20022;-75
2021/01/13 06:18:14;;;;;;;141.77;66.67;;;25.60;2201.60;;;;;;4999695;28;20080;-75
2021/01/13 06:20:41;;;;;;;113.67;58.10;;;25.60;2201.60;;;;;;5017111;28;20022;-75
2021/01/13 06:23:11;;;;;;;124.33;65.47;;;25.70;2201.60;;;;;;5017193;28;20026;-75
2021/01/13 06:25:42;;;;;;;121.50;63.47;;;25.70;2201.60;;;;;;4999496;28;20034;-75
2021/01/13 06:28:45;;;;;;;104.37;55.17;;;25.70;2201.60;;;;;;5017067;28;20470;-75
2021/01/13 06:31:19;;;;;;;111.30;53.80;;;25.70;2201.60;;;;;;5006374;28;20073;-75
2021/01/13 06:34:08;;;;;;;;;;;25.70;2201.60;;;;;;4999743;28;20037;-75
2021/01/13 06:37:12;;;;;;;106.27;51.93;;;25.60;2201.60;;;;;;4986345;28;19960;-74
2021/01/13 06:39:40;;;;;;;105.93;52.47;;;25.60;2201.60;;;;;;4989755;28;20368;-75
2021/01/13 06:42:06;;;;;;;107.20;59.50;;;25.60;2201.60;;;;;;5016724;28;20101;-75
2021/01/13 06:44:48;;;;;;;95.80;48.90;;;25.60;2201.60;;;;;;5016674;28;20046;-75
2021/01/13 06:47:14;;;;;;;96.43;49.17;;;25.70;2201.60;;;;;;4999129;28;20030;-75
2021/01/13 06:49:40;;;;;;;103.50;51.63;;;25.70;2201.60;;;;;;4999017;28;20375;-75
2021/01/13 06:52:09;;;;;;;102.53;50.63;;;25.70;2201.60;;;;;;4999042;28;20022;-76
2021/01/13 06:54:45;;;;;;;91.47;48.33;;;25.60;2201.60;;;;;;4999275;28;20489;-76
2021/01/13 06:57:13;;;;;;;104.87;52.13;;;25.60;2201.60;;;;;;5016521;28;20026;-75
2021/01/13 06:59:39;;;;;;;104.87;54.93;;;0.70;2201.60;;;;;;5016405;28;20177;-75
2021/01/13 07:02:05;;;;;;;108.00;55.20;;;25.60;2201.60;;;;;;4999014;28;20034;-75
2021/01/13 07:04:45;;;;;;;104.17;54.47;;;25.60;2201.60;;;;;;5016264;28;20463;-75
2021/01/13 07:07:12;;;;;;;104.77;57.27;;;0.90;2201.60;;;;;;5016694;28;20053;-75
2021/01/13 07:09:41;;;;;;;106.83;54.33;;;0.90;2201.60;;;;;;4998579;28;20056;-75
2021/01/13 07:12:17;;;;;;;100.83;52.63;;;0.90;2201.60;;;;;;5016233;28;20026;-75
2021/01/13 07:14:45;;;;;;;102.73;54.70;;;0.90;2201.60;;;;;;5016238;28;20383;-75
2021/01/13 07:17:18;;;;;;;99.40;52.73;;;0.90;2201.60;;;;;;5016213;28;20025;-75
2021/01/13 07:19:46;;;;;;;102.10;52.50;;;0.90;2201.60;;;;;;4998548;28;20054;-76
2021/01/13 07:22:14;;;;;;;101.63;52.57;;;0.80;2201.60;;;;;;5015976;28;20663;-75
2021/01/13 07:24:42;;;;;;;104.93;56.67;;;0.90;2201.60;;;;;;4998273;28;20041;-75
2021/01/13 07:27:08;;;;;;;110.10;57.70;;;25.60;2201.60;;;;;;5015826;28;20435;-75
2021/01/13 07:29:34;;;;;;;114.90;60.83;;;25.60;2201.60;;;;;;5015758;28;20075;-75
2021/01/13 07:32:02;;;;;;;109.00;57.83;;;25.70;2201.60;;;;;;4998184;28;20022;-75
2021/01/13 07:34:35;;;;;;;107.90;53.77;;;25.70;2201.60;;;;;;5015716;28;20111;-75
2021/01/13 07:37:07;;;;;;;106.80;50.93;;;25.70;2201.60;;;;;;4994579;28;20065;-75
2021/01/13 07:39:42;;;;;;;107.13;50.97;;;25.70;2201.60;;;;;;4996253;28;20454;-75
2021/01/13 07:42:20;;;;;;;109.20;53.00;;;25.70;2201.60;;;;;;4996054;28;20034;-75
2021/01/13 07:44:53;;;;;;;93.93;48.50;;;25.80;2201.60;;;;;;4994806;28;20051;-75
2021/01/13 07:47:28;;;;;;;104.03;56.93;;;25.90;2201.60;;;;;;4994683;28;20509;-75
2021/01/13 07:50:07;;;;;;;143.63;85.93;;;26.00;2201.60;;;;;;4995927;28;20272;-75
2021/01/13 07:52:48;;;;;;;152.97;77.47;;;26.10;2201.60;;;;;;4994500;28;20033;-75
2021/01/13 07:55:16;;;;;;;105.80;56.23;;;26.30;2201.60;;;;;;4994501;28;20026;-75
2021/01/13 07:57:52;;;;;;;108.90;53.33;;;26.40;2201.60;;;;;;4995038;28;20022;-75
2021/01/13 08:00:36;;;;;;;103.10;54.30;;;26.40;2201.60;;;;;;4993476;28;20022;-75
2021/01/13 08:03:22;;;;;;;104.00;53.43;;;26.50;2201.60;;;;;;4994454;28;20041;-75
2021/01/13 08:06:29;;;;;;;111.87;57.00;;;26.40;2201.60;;;;;;4995580;28;20034;-75
2021/01/13 08:09:04;;;;;;;122.30;62.30;;;26.40;2201.60;;;;;;4991657;28;20035;-75
2021/01/13 08:11:58;;;;;;;108.77;56.40;;;26.50;2201.60;;;;;;4995121;28;20029;-75
2021/01/13 08:15:01;;;;;;;110.82;55.85;;;51.20;2227.20;;;;;;4993813;28;20095;-75
2021/01/13 08:17:57;;;;;;;100.37;55.70;;;51.30;2227.20;;;;;;4994989;28;20464;-75
2021/01/13 08:20:52;;;;;;;120.60;63.77;;;51.30;2227.20;;;;;;4995711;28;20598;-75
2021/01/13 08:23:26;;;;;;;186.23;105.67;;;51.40;2227.20;;;;;;4994268;28;20059;-75
2021/01/13 08:26:05;;;;;;;118.80;64.57;;;51.50;2227.20;;;;;;4994052;28;20034;-75
2021/01/13 08:28:39;;;;;;;178.93;85.53;;;51.60;2227.20;;;;;;4993047;28;20031;-75
2021/01/13 08:31:07;;;;;;;97.37;52.80;;;51.70;2227.20;;;;;;4994548;28;20483;-75
2021/01/13 08:33:36;;;;;;;117.13;61.23;;;51.70;2227.20;;;;;;4993341;28;20031;-75
2021/01/13 08:36:15;;;;;;;126.80;62.07;;;51.80;2227.20;;;;;;4993561;28;20038;-75
2021/01/13 08:39:09;;;;;;;116.13;62.57;;;51.90;2227.20;;;;;;4993803;28;20053;-75
2021/01/13 08:41:36;;;;;;;117.05;61.35;;;52.10;2227.20;;;;;;4995203;28;20057;-75
2021/01/13 08:44:14;;;;;;;86.60;50.40;;;52.10;2227.20;;;;;;4994898;28;20030;-75
2021/01/13 08:47:03;;;;;;;70.50;43.57;;;76.80;2227.20;;;;;;4993485;28;20045;-75
2021/01/13 08:49:32;;;;;;;66.80;41.40;;;76.90;2227.20;;;;;;4992996;28;20026;-75
2021/01/13 08:52:14;;;;;;;72.77;44.23;;;77.00;2227.20;;;;;;4994746;28;20542;-75
2021/01/13 08:54:44;;;;;;;75.43;45.30;;;77.20;2227.20;;;;;;4995099;28;20018;-75
2021/01/13 08:57:11;;;;;;;86.60;57.77;;;77.30;2227.20;;;;;;4995037;28;20106;-75
2021/01/13 08:59:38;;;;;;;221.50;147.50;;;77.20;2227.20;;;;;;4993452;28;20037;-75
2021/01/13 09:02:15;;;;;;;101.50;61.47;;;77.20;2227.20;;;;;;4994558;28;20101;-75
2021/01/13 09:04:58;;;;;;;68.47;39.67;;;77.10;2227.20;;;;;;4988657;28;20031;-75
2021/01/13 09:07:43;;;;;;;68.83;40.27;;;77.00;2227.20;;;;;;4992962;28;20062;-76
2021/01/13 09:10:13;;;;;;;67.07;40.07;;;77.00;2227.20;;;;;;4993411;28;20053;-75
2021/01/13 09:12:46;;;;;;;64.60;39.03;;;76.90;2227.20;;;;;;4994598;28;20100;-75
2021/01/13 09:15:28;;;;;;;65.45;40.08;;;76.90;2227.20;;;;;;4994919;28;20018;-75
2021/01/13 09:17:55;;;;;;;72.53;41.60;;;76.90;2227.20;;;;;;4994384;28;20085;-74
2021/01/13 09:20:27;;;;;;;69.07;41.93;;;77.00;2227.20;;;;;;4994908;28;20023;-75
2021/01/13 09:23:01;;;;;;;64.43;40.20;;;77.10;2227.20;;;;;;5001511;28;20030;-75
2021/01/13 09:25:32;;;;;;;;;;;77.10;2227.20;;;;;;4994016;28;20503;-75
2021/01/13 09:28:01;;;;;;;70.23;38.23;;;77.00;2227.20;;;;;;4999209;28;19933;-76
2021/01/13 09:30:40;;;;;;;96.53;56.53;;;77.00;2227.20;;;;;;4995862;28;20451;-75
2021/01/13 09:33:17;;;;;;;174.20;96.30;;;77.00;2227.20;;;;;;4998616;28;20026;-78
2021/01/13 09:36:03;;;;;;;91.57;49.97;;;77.00;2227.20;;;;;;5010752;28;20129;-75
2021/01/13 09:38:38;;;;;;;63.90;36.27;;;77.00;2227.20;;;;;;4995167;28;20033;-74
2021/01/13 09:41:07;;;;;;;59.97;35.00;;;77.00;2227.20;;;;;;5012116;28;20026;-76
2021/01/13 09:43:46;;;;;;;63.03;37.77;;;77.00;2227.20;;;;;;4997097;28;20033;-75
2021/01/13 09:46:21;;;;;;;61.73;37.33;;;77.00;2227.20;;;;;;4996020;28;20073;-74
2021/01/13 09:49:05;;;;;;;65.17;36.27;;;77.10;2227.20;;;;;;5019328;28;20072;-76
2021/01/13 09:51:47;;;;;;;;;;;77.10;2227.20;;;;;;5000706;28;20026;-78
2021/01/13 09:54:14;;;;;;;72.30;40.20;;;77.10;2227.20;;;;;;5009285;28;20313;-73
2021/01/13 09:56:42;;;;;;;75.10;44.43;;;77.10;2227.20;;;;;;5024600;28;20018;-77
2021/01/13 09:59:08;;;;;;;75.83;43.43;;;77.10;2227.20;;;;;;5018915;28;20057;-75
2021/01/13 10:01:36;;;;;;;74.23;47.07;;;77.30;2227.20;;;;;;5014540;28;20033;-78
2021/01/13 10:04:10;;;;;;;107.83;82.13;;;179.20;1894.40;;;;;;5013545;28;20018;-73
2021/01/13 10:06:38;;;;;;;;;;;231.10;1536.00;;;;;;5013806;28;20390;-79
2021/01/13 10:09:13;;;;;;;95.17;53.03;;;307.90;1305.60;;;;;;5013334;28;20020;-79
2021/01/13 10:11:40;;;;;;;61.57;39.77;;;231.00;1459.20;;;;;;4995973;28;20026;-78
2021/01/13 10:14:08;;;;;;;60.87;38.30;;;180.10;1664.00;;;;;;5012384;28;20101;-79
2021/01/13 10:16:41;;;;;;;56.07;32.73;;;179.60;1740.80;;;;;;4994412;28;20033;-78
2021/01/13 10:19:07;;;;;;;121.05;62.38;;;153.90;1843.20;;;;;;4990543;28;20022;-78
2021/01/13 10:21:35;;;;;;;97.13;51.87;;;128.80;1920.00;;;;;;4975356;28;20037;-80
2021/01/13 10:24:12;;;;;;;51.23;31.13;;;128.50;1996.80;;;;;;5003143;28;20505;-77
2021/01/13 10:26:47;;;;;;;53.53;30.80;;;128.70;1971.20;;;;;;5011462;28;20033;-77
2021/01/13 10:29:22;;;;;;;52.93;32.73;;;154.30;1817.60;;;;;;4995195;28;20459;-77
2021/01/13 10:31:49;;;;;;;49.07;28.27;;;154.40;1792.00;;;;;;4994766;28;20026;-78
2021/01/13 10:34:15;;;;;;;59.97;34.03;;;154.40;1792.00;;;;;;4998141;28;20471;-77
2021/01/13 10:36:44;;;;;;;49.03;30.93;;;205.00;1664.00;;;;;;4998371;28;20144;-78
2021/01/13 10:39:20;;;;;;;47.03;29.77;;;230.70;1510.40;;;;;;4998314;28;20034;-78
2021/01/13 10:41:49;;;;;;;45.77;25.13;;;230.40;1536.00;;;;;;4998606;28;20049;-77
2021/01/13 10:44:21;;;;;;;119.67;73.97;;;179.80;1638.40;;;;;;5016392;28;20482;-77
2021/01/13 10:46:55;;;;;;;50.03;31.03;;;179.20;1715.20;;;;;;5016462;28;20065;-77
2021/01/13 10:49:46;;;;;;;;;;;153.60;1843.20;;;;;;5016209;28;20050;-78
2021/01/13 10:52:21;;;;;;;34.40;20.00;;;128.60;1894.40;;;;;;4986967;28;19951;-75
2021/01/13 10:54:49;;;;;;;40.27;22.57;;;128.60;1868.80;;;;;;5015940;28;20037;-77
2021/01/13 10:57:17;;;;;;;37.70;18.57;;;153.60;1843.20;;;;;;4998513;28;20026;-78
2021/01/13 10:59:43;;;;;;;33.93;20.20;;;153.80;1817.60;;;;;;5015556;28;20026;-78
2021/01/13 11:02:10;;;;;;;37.37;21.43;;;153.80;1817.60;;;;;;5016078;28;20056;-76
2021/01/13 11:04:44;;;;;;;33.37;17.63;;;154.10;1792.00;;;;;;5015381;28;20490;-76
2021/01/13 11:07:14;;;;;;;34.85;19.98;;;179.40;1715.20;;;;;;5016061;28;20041;-79
2021/01/13 11:09:43;;;;;;;34.50;18.13;;;179.70;1664.00;;;;;;5015338;28;20057;-75
2021/01/13 11:12:10;;;;;;;35.47;21.73;;;179.40;1689.60;;;;;;5015816;28;20033;-77
2021/01/13 11:14:41;;;;;;;36.80;23.80;;;179.70;1689.60;;;;;;4998023;28;20076;-77
2021/01/13 11:17:12;;;;;;;108.93;81.23;;;180.10;1638.40;;;;;;4998133;28;20026;-80
2021/01/13 11:19:44;;;;;;;41.90;21.27;;;205.70;1536.00;;;;;;4998371;28;20390;-76
2021/01/13 11:22:10;;;;;;;31.27;18.23;;;230.50;1484.80;;;;;;5016001;28;20033;-76
2021/01/13 11:24:51;;;;;;;28.93;17.30;;;205.20;1536.00;;;;;;5015985;28;20498;-80
2021/01/13 11:27:19;;;;;;;34.80;19.47;;;179.80;1638.40;;;;;;5016144;28;20060;-78
2021/01/13 11:29:52;;;;;;;34.37;19.03;;;179.20;1689.60;;;;;;5015972;28;20018;-75
2021/01/13 11:32:20;;;;;;;34.77;19.33;;;154.10;1740.80;;;;;;5015921;28;20021;-76
2021/01/13 11:34:52;;;;;;;36.10;18.50;;;153.90;1792.00;;;;;;5015793;28;20486;-76
2021/01/13 11:37:27;;;;;;;23.77;15.10;;;154.00;1766.40;;;;;;5015666;28;20494;-75
2021/01/13 11:40:06;;;;;;;36.27;19.50;;;153.90;1766.40;;;;;;5015668;28;20029;-76
2021/01/13 11:43:09;;;;;;;29.57;18.43;;;153.60;1817.60;;;;;;4998300;28;20056;-75
2021/01/13 11:46:03;;;;;;;27.23;13.43;;;128.90;1792.00;;;;;;4996903;28;20033;-75
2021/01/13 11:48:50;;;;;;;29.63;15.30;;;128.60;1843.20;;;;;;4998005;28;20072;-76
2021/01/13 11:51:17;;;;;;;25.40;13.70;;;128.50;1868.80;;;;;;4997944;28;20267;-76
2021/01/13 11:53:46;;;;;;;43.93;25.40;;;128.30;1894.40;;;;;;4996898;28;20036;-77
2021/01/13 11:56:12;;;;;;;21.60;13.40;;;128.30;1894.40;;;;;;4997585;28;20453;-77
2021/01/13 11:58:47;;;;;;;29.87;15.13;;;128.30;1894.40;;;;;;4997284;28;20018;-76
2021/01/13 12:01:13;;;;;;;23.97;14.83;;;128.30;1894.40;;;;;;5014757;28;20022;-76
2021/01/13 12:03:39;;;;;;;30.70;16.13;;;128.20;1920.00;;;;;;5014846;28;20018;-77
2021/01/13 12:06:09;;;;;;;22.73;13.90;;;128.10;1920.00;;;;;;5014661;28;20042;-76
2021/01/13 12:08:35;;;;;;;22.33;13.40;;;128.10;1920.00;;;;;;5015042;28;20034;-76
2021/01/13 12:11:02;;;;;;;49.00;16.50;;;128.00;1920.00;;;;;;4996774;28;20120;-76
2021/01/13 12:13:33;;;;;;;33.53;16.60;;;103.30;1920.00;;;;;;5014612;28;20018;-77
2021/01/13 12:16:01;;;;;;;30.60;15.93;;;103.30;1945.60;;;;;;5014938;28;20112;-77
2021/01/13 12:18:33;;;;;;;26.17;13.53;;;103.30;1920.00;;;;;;4997226;28;20117;-77
2021/01/13 12:21:29;;;;;;;25.77;13.93;;;128.00;1920.00;;;;;;5014360;28;20135;-77
2021/01/13 12:23:57;;;;;;;35.80;20.47;;;128.00;1945.60;;;;;;4996818;28;20030;-77
2021/01/13 12:26:31;;;;;;;21.87;12.27;;;128.00;1920.00;;;;;;5014242;28;20045;-77
2021/01/13 12:29:03;;;;;;;26.10;13.17;;;128.00;1920.00;;;;;;4996882;28;20033;-76
2021/01/13 12:31:44;;;;;;;30.17;15.53;;;128.00;1920.00;;;;;;4996727;28;20034;-77
2021/01/13 12:34:22;;;;;;;40.63;17.40;;;128.20;1920.00;;;;;;5014381;28;20453;-79
2021/01/13 12:36:53;;;;;;;17.53;8.70;;;128.30;1920.00;;;;;;5014319;28;20042;-78
2021/01/13 12:39:27;;;;;;;16.30;8.67;;;128.40;1868.80;;;;;;4996863;28;20096;-76